createdAt,value
2018-09-09T00:00:28.252Z,99.90
2018-09-09T00:02:56.435Z,99.90
2018-09-09T00:05:24.655Z,99.90
2018-09-09T00:07:52.852Z,99.90
2018-09-09T00:10:21.044Z,99.90
2018-09-09T00:12:49.230Z,99.90
2018-09-09T00:15:17.452Z,99.90
2018-09-09T00:17:45.647Z,99.90
2018-09-09T00:20:13.853Z,99.90
2018-09-09T00:22:42.062Z,99.90
2018-09-09T00:25:10.267Z,99.90
2018-09-09T00:27:38.465Z,99.90
2018-09-09T00:30:06.948Z,99.90
2018-09-09T00:32:35.142Z,99.90
2018-09-09T00:35:03.344Z,99.90
2018-09-09T00:37:31.612Z,99.90
2018-09-09T00:39:59.801Z,99.90
2018-09-09T00:42:28.041Z,99.90
2018-09-09T00:44:56.251Z,99.90
2018-09-09T00:47:24.427Z,99.90
2018-09-09T00:49:57.957Z,99.90
2018-09-09T00:52:31.569Z,99.90
2018-09-09T00:54:59.762Z,99.90
2018-09-09T00:57:27.947Z,99.90
2018-09-09T00:59:56.145Z,99.90
2018-09-09T01:02:24.316Z,99.90
2018-09-09T01:04:52.677Z,99.90
2018-09-09T01:07:20.842Z,99.90
2018-09-09T01:09:49.069Z,99.90
2018-09-09T01:12:17.256Z,99.90
2018-09-09T01:14:45.595Z,99.90
2018-09-09T01:17:13.823Z,99.90
2018-09-09T01:19:42.448Z,99.90
2018-09-09T01:22:10.699Z,99.90
2018-09-09T01:24:38.897Z,99.90
2018-09-09T01:27:07.112Z,99.90
2018-09-09T01:29:35.363Z,99.90
2018-09-09T01:32:03.548Z,99.90
2018-09-09T01:34:31.778Z,99.90
2018-09-09T01:37:00.055Z,99.90
2018-09-09T01:39:28.232Z,99.90
2018-09-09T01:41:56.461Z,99.90
2018-09-09T01:44:24.665Z,99.90
2018-09-09T01:46:52.896Z,99.90
2018-09-09T01:49:21.113Z,99.90
2018-09-09T01:51:49.351Z,99.90
2018-09-09T01:54:17.670Z,99.90
2018-09-09T01:56:45.868Z,99.90
2018-09-09T01:59:14.036Z,99.90
2018-09-09T02:01:42.267Z,99.90
2018-09-09T02:04:10.482Z,99.90
2018-09-09T02:06:38.683Z,99.90
2018-09-09T02:09:07.006Z,99.90
2018-09-09T02:11:35.188Z,99.90
2018-09-09T02:14:03.417Z,99.90
2018-09-09T02:16:31.598Z,99.90
2018-09-09T02:18:59.861Z,99.90
2018-09-09T02:21:28.038Z,99.90
2018-09-09T02:23:56.299Z,99.90
2018-09-09T02:26:24.467Z,99.90
2018-09-09T02:28:52.658Z,99.90
2018-09-09T02:31:20.970Z,99.90
2018-09-09T02:33:49.168Z,99.90
2018-09-09T02:36:17.360Z,99.90
2018-09-09T02:38:45.543Z,99.90
2018-09-09T02:41:13.808Z,99.90
2018-09-09T02:43:41.976Z,99.90
2018-09-09T02:46:10.160Z,99.90
2018-09-09T02:48:38.351Z,99.90
2018-09-09T02:51:06.574Z,99.90
2018-09-09T02:53:34.784Z,99.90
2018-09-09T02:56:07.227Z,99.90
2018-09-09T02:58:35.435Z,99.90
2018-09-09T03:01:03.620Z,99.90
2018-09-09T03:03:31.832Z,99.90
2018-09-09T03:06:00.088Z,99.90
2018-09-09T03:08:28.347Z,99.90
2018-09-09T03:11:01.903Z,99.90
2018-09-09T03:13:30.136Z,99.90
2018-09-09T03:15:58.371Z,99.90
2018-09-09T03:18:26.559Z,99.90
2018-09-09T03:20:54.816Z,99.90
2018-09-09T03:23:23.286Z,99.90
2018-09-09T03:25:51.489Z,99.90
2018-09-09T03:28:19.704Z,99.90
2018-09-09T03:30:47.860Z,99.90
2018-09-09T03:33:16.053Z,99.90
2018-09-09T03:35:44.325Z,99.90
2018-09-09T03:38:12.555Z,99.90
2018-09-09T03:40:40.749Z,99.90
2018-09-09T03:43:08.977Z,99.90
2018-09-09T03:45:37.151Z,99.90
2018-09-09T03:48:05.416Z,99.90
2018-09-09T03:50:33.672Z,99.90
2018-09-09T03:53:02.049Z,99.90
2018-09-09T03:55:30.626Z,99.90
2018-09-09T03:57:58.899Z,99.90
2018-09-09T04:00:27.074Z,99.90
2018-09-09T04:02:55.276Z,99.90
2018-09-09T04:05:23.485Z,99.90
2018-09-09T04:07:51.968Z,99.90
2018-09-09T04:10:20.250Z,99.90
2018-09-09T04:12:48.489Z,99.90
2018-09-09T04:15:16.704Z,99.90
2018-09-09T04:17:44.900Z,99.90
2018-09-09T04:20:13.087Z,99.90
2018-09-09T04:22:41.313Z,99.90
2018-09-09T04:25:09.508Z,99.90
2018-09-09T04:27:37.697Z,99.90
2018-09-09T04:30:06.031Z,99.90
2018-09-09T04:32:34.299Z,99.90
2018-09-09T04:35:02.539Z,99.90
2018-09-09T04:37:30.779Z,99.90
2018-09-09T04:39:58.995Z,99.90
2018-09-09T04:42:27.204Z,99.90
2018-09-09T04:44:55.399Z,99.90
2018-09-09T04:47:23.587Z,99.90
2018-09-09T04:49:51.879Z,99.90
2018-09-09T04:52:20.274Z,99.90
2018-09-09T04:54:48.527Z,99.90
2018-09-09T04:57:16.729Z,99.90
2018-09-09T04:59:44.992Z,99.90
2018-09-09T05:02:13.227Z,99.90
2018-09-09T05:04:41.919Z,99.90
2018-09-09T05:07:10.349Z,99.90
2018-09-09T05:09:39.029Z,99.90
2018-09-09T05:12:07.253Z,99.90
2018-09-09T05:14:35.552Z,99.90
2018-09-09T05:17:03.759Z,99.90
2018-09-09T05:19:31.996Z,99.90
2018-09-09T05:22:00.324Z,99.90
2018-09-09T05:24:28.540Z,99.90
2018-09-09T05:26:56.717Z,99.90
2018-09-09T05:29:24.979Z,99.90
2018-09-09T05:34:27.873Z,99.90
2018-09-09T05:36:56.046Z,99.90
2018-09-09T05:39:24.284Z,99.90
2018-09-09T05:41:52.486Z,99.90
2018-09-09T05:44:20.742Z,99.90
2018-09-09T05:46:48.891Z,99.90
2018-09-09T05:49:17.024Z,99.90
2018-09-09T05:51:45.214Z,99.90
2018-09-09T05:54:13.406Z,99.90
2018-09-09T05:56:41.729Z,99.90
2018-09-09T05:59:09.906Z,99.90
2018-09-09T06:01:38.172Z,99.90
2018-09-09T06:04:06.317Z,99.90
2018-09-09T06:06:35.549Z,99.90
2018-09-09T06:09:04.955Z,99.90
2018-09-09T06:11:33.208Z,99.90
2018-09-09T06:14:01.375Z,99.90
2018-09-09T06:16:29.534Z,99.90
2018-09-09T06:18:57.682Z,99.90
2018-09-09T06:21:25.895Z,99.90
2018-09-09T06:23:54.059Z,99.90
2018-09-09T06:26:22.314Z,99.90
2018-09-09T06:28:50.486Z,99.90
2018-09-09T06:31:19.243Z,99.90
2018-09-09T06:33:47.485Z,99.90
2018-09-09T06:36:15.693Z,99.90
2018-09-09T06:38:43.879Z,99.90
2018-09-09T06:41:18.382Z,99.90
2018-09-09T06:43:47.641Z,99.90
2018-09-09T06:46:15.858Z,99.90
2018-09-09T06:48:44.119Z,99.90
2018-09-09T06:51:12.433Z,99.90
2018-09-09T06:53:41.530Z,99.90
2018-09-09T06:56:09.898Z,99.90
2018-09-09T06:58:38.114Z,99.90
2018-09-09T07:01:06.341Z,99.90
2018-09-09T07:03:34.552Z,99.90
2018-09-09T07:06:02.697Z,99.90
2018-09-09T07:08:30.889Z,99.90
2018-09-09T07:10:59.150Z,99.90
2018-09-09T07:13:27.491Z,99.90
2018-09-09T07:15:55.731Z,99.90
2018-09-09T07:18:23.900Z,99.90
2018-09-09T07:20:52.074Z,99.90
2018-09-09T07:23:20.315Z,99.90
2018-09-09T07:25:48.545Z,99.90
2018-09-09T07:28:16.770Z,99.90
2018-09-09T07:30:44.933Z,99.90
2018-09-09T07:33:13.093Z,99.90
2018-09-09T07:35:41.327Z,99.90
2018-09-09T07:38:09.629Z,99.90
2018-09-09T07:40:37.810Z,99.90
2018-09-09T07:43:06.121Z,99.90
2018-09-09T07:45:34.298Z,99.90
2018-09-09T07:48:02.620Z,99.90
2018-09-09T07:50:30.796Z,99.90
2018-09-09T07:52:59.022Z,99.90
2018-09-09T07:55:27.256Z,99.70
2018-09-09T07:57:55.390Z,99.50
2018-09-09T08:00:24.179Z,99.50
2018-09-09T08:02:52.334Z,99.20
2018-09-09T08:05:20.882Z,99.50
2018-09-09T08:07:49.187Z,99.20
2018-09-09T08:10:17.482Z,98.80
2018-09-09T08:12:46.702Z,98.60
2018-09-09T08:15:14.990Z,97.50
2018-09-09T08:17:43.152Z,96.70
2018-09-09T08:20:11.354Z,95.50
2018-09-09T08:22:39.571Z,94.70
2018-09-09T08:25:07.903Z,93.10
2018-09-09T08:27:36.805Z,93.30
2018-09-09T08:30:05.543Z,92.30
2018-09-09T08:32:34.755Z,91.30
2018-09-09T08:35:03.615Z,90.30
2018-09-09T08:37:32.391Z,90.00
2018-09-09T08:40:00.943Z,90.30
2018-09-09T08:42:29.181Z,91.30
2018-09-09T08:44:57.398Z,91.50
2018-09-09T08:47:26.360Z,91.50
2018-09-09T08:49:54.561Z,91.20
2018-09-09T08:52:22.703Z,90.40
2018-09-09T08:54:50.851Z,87.20
2018-09-09T08:57:19.082Z,84.10
2018-09-09T08:59:47.241Z,81.20
2018-09-09T09:02:15.510Z,80.30
2018-09-09T09:04:43.657Z,78.80
2018-09-09T09:07:11.804Z,76.50
2018-09-09T09:09:39.991Z,74.50
2018-09-09T09:12:10.106Z,71.40
2018-09-09T09:14:38.945Z,70.70
2018-09-09T09:17:07.294Z,67.80
2018-09-09T09:19:38.427Z,65.50
2018-09-09T09:22:07.138Z,65.00
2018-09-09T09:24:35.309Z,63.60
2018-09-09T09:27:03.566Z,66.20
2018-09-09T09:29:37.299Z,66.20
2018-09-09T09:32:06.530Z,63.30
2018-09-09T09:34:34.787Z,62.30
2018-09-09T09:37:02.984Z,61.20
2018-09-09T09:39:31.118Z,60.00
2018-09-09T09:41:59.576Z,58.60
2018-09-09T09:44:27.785Z,57.10
2018-09-09T09:46:56.360Z,57.30
2018-09-09T09:49:25.558Z,55.10
2018-09-09T09:51:53.725Z,53.40
2018-09-09T09:54:21.893Z,51.90
2018-09-09T09:56:50.044Z,51.80
2018-09-09T09:59:18.201Z,50.80
2018-09-09T10:01:46.365Z,51.80
2018-09-09T10:04:14.528Z,50.60
2018-09-09T10:06:42.674Z,48.40
2018-09-09T10:09:10.871Z,47.60
2018-09-09T10:11:39.084Z,47.80
2018-09-09T10:14:07.211Z,48.00
2018-09-09T10:16:35.464Z,47.90
2018-09-09T10:19:03.622Z,47.90
2018-09-09T10:21:32.061Z,47.40
2018-09-09T10:24:00.180Z,46.80
2018-09-09T10:26:28.302Z,44.80
2018-09-09T10:28:56.827Z,43.10
2018-09-09T10:31:24.982Z,42.30
2018-09-09T10:33:53.089Z,42.30
2018-09-09T10:36:21.558Z,45.10
2018-09-09T10:38:49.742Z,43.80
2018-09-09T10:41:17.893Z,43.40
2018-09-09T10:43:46.094Z,43.40
2018-09-09T10:46:14.327Z,42.60
2018-09-09T10:48:42.417Z,41.70
2018-09-09T10:51:10.784Z,39.50
2018-09-09T10:53:38.929Z,39.00
2018-09-09T10:56:07.130Z,40.10
2018-09-09T10:58:35.302Z,39.20
2018-09-09T11:01:03.451Z,36.60
2018-09-09T11:03:31.742Z,37.40
2018-09-09T11:05:59.962Z,38.00
2018-09-09T11:08:28.118Z,36.50
2018-09-09T11:10:56.264Z,35.80
2018-09-09T11:13:24.414Z,36.90
2018-09-09T11:15:52.971Z,36.60
2018-09-09T11:18:21.138Z,35.40
2018-09-09T11:20:49.277Z,35.60
2018-09-09T11:23:17.474Z,34.40
2018-09-09T11:25:45.666Z,33.40
2018-09-09T11:28:13.854Z,34.70
2018-09-09T11:30:42.241Z,35.60
2018-09-09T11:33:10.526Z,34.30
2018-09-09T11:35:38.697Z,33.90
2018-09-09T11:38:06.894Z,33.60
2018-09-09T11:40:35.146Z,34.00
2018-09-09T11:43:03.290Z,34.70
2018-09-09T11:45:31.520Z,35.90
2018-09-09T11:48:00.605Z,36.20
2018-09-09T11:50:28.813Z,38.40
2018-09-09T11:52:57.139Z,39.30
2018-09-09T11:55:25.734Z,39.30
2018-09-09T11:57:54.292Z,38.10
2018-09-09T12:00:22.930Z,37.20
2018-09-09T12:02:51.201Z,36.60
2018-09-09T12:05:19.473Z,35.50
2018-09-09T12:07:47.800Z,35.40
2018-09-09T12:10:16.281Z,34.10
2018-09-09T12:12:44.475Z,34.70
2018-09-09T12:15:12.784Z,34.90
2018-09-09T12:17:40.986Z,33.10
2018-09-09T12:20:09.357Z,32.40
2018-09-09T12:22:37.632Z,31.70
2018-09-09T12:25:05.946Z,32.80
2018-09-09T12:27:34.195Z,30.70
2018-09-09T12:30:03.264Z,31.40
2018-09-09T12:32:31.834Z,31.30
2018-09-09T12:34:59.970Z,30.00
2018-09-09T12:37:28.158Z,31.00
2018-09-09T12:39:56.350Z,30.20
2018-09-09T12:42:25.222Z,30.70
2018-09-09T12:44:59.491Z,31.20
2018-09-09T12:47:33.652Z,30.90
2018-09-09T12:50:02.526Z,30.60
2018-09-09T12:52:31.258Z,31.60
2018-09-09T12:55:00.206Z,31.40
2018-09-09T12:57:29.198Z,31.80
2018-09-09T12:59:58.314Z,31.00
2018-09-09T13:02:27.478Z,31.00
2018-09-09T13:04:56.415Z,31.30
2018-09-09T13:07:24.710Z,31.90
2018-09-09T13:09:52.847Z,32.80
2018-09-09T13:12:21.025Z,32.20
2018-09-09T13:14:49.352Z,32.10
2018-09-09T13:17:18.016Z,30.70
2018-09-09T13:19:46.447Z,30.20
2018-09-09T13:22:14.613Z,30.40
2018-09-09T13:24:43.169Z,31.70
2018-09-09T13:27:11.826Z,32.50
2018-09-09T13:29:40.036Z,31.20
2018-09-09T13:32:08.379Z,31.20
2018-09-09T13:34:36.583Z,30.70
2018-09-09T13:37:05.048Z,31.30
2018-09-09T13:39:33.273Z,31.60
2018-09-09T13:42:01.476Z,31.90
2018-09-09T13:44:29.663Z,32.70
2018-09-09T13:46:57.949Z,34.10
2018-09-09T13:49:26.171Z,33.20
2018-09-09T13:51:54.369Z,34.40
2018-09-09T13:54:22.656Z,33.20
2018-09-09T13:56:50.850Z,33.70
2018-09-09T13:59:19.089Z,33.30
2018-09-09T14:01:47.280Z,33.50
2018-09-09T14:04:15.489Z,32.40
2018-09-09T14:06:43.774Z,31.90
2018-09-09T14:09:11.997Z,31.80
2018-09-09T14:11:40.524Z,31.50
2018-09-09T14:14:09.067Z,30.80
2018-09-09T14:16:37.380Z,31.00
2018-09-09T14:19:06.838Z,30.10
2018-09-09T14:21:35.223Z,29.40
2018-09-09T14:24:03.532Z,29.90
2018-09-09T14:26:31.832Z,29.60
2018-09-09T14:29:00.351Z,29.90
2018-09-09T14:31:28.660Z,29.00
2018-09-09T14:33:57.031Z,28.80
2018-09-09T14:36:25.731Z,28.60
2018-09-09T14:38:53.972Z,29.00
2018-09-09T14:41:22.219Z,28.80
2018-09-09T14:43:50.475Z,28.80
2018-09-09T14:46:18.681Z,29.20
2018-09-09T14:48:46.884Z,28.20
2018-09-09T14:51:15.081Z,28.40
2018-09-09T14:53:43.293Z,28.30
2018-09-09T14:56:11.570Z,28.50
2018-09-09T14:58:39.772Z,28.90
2018-09-09T15:01:08.087Z,28.40
2018-09-09T15:03:36.348Z,28.60
2018-09-09T15:06:04.559Z,28.90
2018-09-09T15:08:32.759Z,28.80
2018-09-09T15:11:00.984Z,29.30
2018-09-09T15:13:29.241Z,29.20
2018-09-09T15:15:57.556Z,30.00
2018-09-09T15:18:25.784Z,32.50
2018-09-09T15:20:54.048Z,33.40
2018-09-09T15:23:22.230Z,33.30
2018-09-09T15:25:50.680Z,35.40
2018-09-09T15:28:18.989Z,35.90
2018-09-09T15:30:47.237Z,36.50
2018-09-09T15:33:15.433Z,37.90
2018-09-09T15:35:43.807Z,35.30
2018-09-09T15:38:12.124Z,35.50
2018-09-09T15:40:40.339Z,36.40
2018-09-09T15:43:08.811Z,35.20
2018-09-09T15:45:37.549Z,38.40
2018-09-09T15:48:05.779Z,39.60
2018-09-09T15:50:33.980Z,39.80
2018-09-09T15:53:02.259Z,37.30
2018-09-09T15:55:30.733Z,39.60
2018-09-09T15:57:59.018Z,40.50
2018-09-09T16:00:27.248Z,41.20
2018-09-09T16:02:55.387Z,41.70
2018-09-09T16:05:23.636Z,42.00
2018-09-09T16:07:51.848Z,42.50
2018-09-09T16:10:20.056Z,41.30
2018-09-09T16:12:48.254Z,42.10
2018-09-09T16:15:16.427Z,42.40
2018-09-09T16:17:44.606Z,42.30
2018-09-09T16:20:12.919Z,42.80
2018-09-09T16:22:41.163Z,43.50
2018-09-09T16:25:09.379Z,44.50
2018-09-09T16:27:37.546Z,44.40
2018-09-09T16:30:07.087Z,44.30
2018-09-09T16:32:35.321Z,44.30
2018-09-09T16:35:03.603Z,44.30
2018-09-09T16:37:31.891Z,46.20
2018-09-09T16:40:00.156Z,47.10
2018-09-09T16:42:28.391Z,47.90
2018-09-09T16:44:56.742Z,48.70
2018-09-09T16:47:24.964Z,49.30
2018-09-09T16:49:53.172Z,49.80
2018-09-09T16:52:21.506Z,49.80
2018-09-09T16:54:49.898Z,50.20
2018-09-09T16:57:18.085Z,50.70
2018-09-09T16:59:46.315Z,50.90
2018-09-09T17:02:14.556Z,51.20
2018-09-09T17:04:43.275Z,51.50
2018-09-09T17:07:12.848Z,51.70
2018-09-09T17:09:41.227Z,51.90
2018-09-09T17:12:09.431Z,51.90
2018-09-09T17:14:38.012Z,52.20
2018-09-09T17:17:06.207Z,52.60
2018-09-09T17:19:34.408Z,53.10
2018-09-09T17:22:02.636Z,53.40
2018-09-09T17:24:30.903Z,54.00
2018-09-09T17:26:59.096Z,54.40
2018-09-09T17:29:27.368Z,54.30
2018-09-09T17:31:55.835Z,54.60
2018-09-09T17:34:24.118Z,54.50
2018-09-09T17:36:52.778Z,54.60
2018-09-09T17:39:21.020Z,54.90
2018-09-09T17:41:49.178Z,54.70
2018-09-09T17:44:17.372Z,54.80
2018-09-09T17:46:45.583Z,55.00
2018-09-09T17:49:13.756Z,55.90
2018-09-09T17:51:42.016Z,56.40
2018-09-09T17:54:10.180Z,57.30
2018-09-09T17:56:38.383Z,58.40
2018-09-09T17:59:06.952Z,59.70
2018-09-09T18:01:35.165Z,61.60
2018-09-09T18:04:03.332Z,63.70
2018-09-09T18:06:31.522Z,64.90
2018-09-09T18:08:59.703Z,66.10
2018-09-09T18:11:27.914Z,66.60
2018-09-09T18:13:56.409Z,66.70
2018-09-09T18:16:24.595Z,67.00
2018-09-09T18:18:52.887Z,68.70
2018-09-09T18:21:21.379Z,69.80
2018-09-09T18:23:49.728Z,71.70
2018-09-09T18:26:18.040Z,74.00
2018-09-09T18:28:46.284Z,75.90
2018-09-09T18:31:14.496Z,78.00
2018-09-09T18:33:42.681Z,81.20
2018-09-09T18:36:10.907Z,84.10
2018-09-09T18:38:39.149Z,86.20
2018-09-09T18:41:07.292Z,87.20
2018-09-09T18:43:35.704Z,88.30
2018-09-09T18:46:04.120Z,89.10
2018-09-09T18:48:32.393Z,90.20
2018-09-09T18:51:00.664Z,91.20
2018-09-09T18:53:28.919Z,91.90
2018-09-09T18:55:57.128Z,92.10
2018-09-09T18:58:25.377Z,92.20
2018-09-09T19:00:53.795Z,92.90
2018-09-09T19:03:22.703Z,94.10
2018-09-09T19:05:58.297Z,95.10
2018-09-09T19:08:26.632Z,96.10
2018-09-09T19:10:54.898Z,96.20
2018-09-09T19:13:23.202Z,96.30
2018-09-09T19:15:51.591Z,96.20
2018-09-09T19:18:19.995Z,96.60
2018-09-09T19:20:48.154Z,96.70
2018-09-09T19:23:16.363Z,97.30
2018-09-09T19:25:44.591Z,98.00
2018-09-09T19:28:12.784Z,98.40
2018-09-09T19:30:41.220Z,98.80
2018-09-09T19:33:09.702Z,99.50
2018-09-09T19:35:38.181Z,99.90
2018-09-09T19:38:06.486Z,99.90
2018-09-09T19:40:34.672Z,99.90
2018-09-09T19:43:02.895Z,99.90
2018-09-09T19:45:31.119Z,99.90
2018-09-09T19:47:59.309Z,99.90
2018-09-09T19:50:27.731Z,99.90
2018-09-09T19:52:55.972Z,99.90
2018-09-09T19:55:24.158Z,99.90
2018-09-09T19:57:52.440Z,99.90
2018-09-09T20:00:20.639Z,99.90
2018-09-09T20:02:48.901Z,99.90
2018-09-09T20:05:17.109Z,99.90
2018-09-09T20:07:46.023Z,99.90
2018-09-09T20:10:14.270Z,99.90
2018-09-09T20:12:42.870Z,99.90
2018-09-09T20:15:11.526Z,99.90
2018-09-09T20:17:40.377Z,99.90
2018-09-09T20:20:09.080Z,99.90
2018-09-09T20:22:37.440Z,99.90
2018-09-09T20:25:05.643Z,99.90
2018-09-09T20:27:33.867Z,99.90
2018-09-09T20:30:02.103Z,99.90
2018-09-09T20:32:30.355Z,99.90
2018-09-09T20:34:58.466Z,99.90
2018-09-09T20:37:26.609Z,99.90
2018-09-09T20:39:54.782Z,99.90
2018-09-09T20:42:23.073Z,99.90
2018-09-09T20:44:51.225Z,99.90
2018-09-09T20:47:19.470Z,99.90
2018-09-09T20:49:47.671Z,99.90
2018-09-09T20:52:15.802Z,99.90
2018-09-09T20:54:43.944Z,99.90
2018-09-09T20:57:13.217Z,99.90
2018-09-09T20:59:41.377Z,99.90
2018-09-09T21:02:09.594Z,99.90
2018-09-09T21:04:37.754Z,99.90
2018-09-09T21:07:06.125Z,99.90
2018-09-09T21:09:34.338Z,99.90
2018-09-09T21:12:02.482Z,99.90
2018-09-09T21:14:30.626Z,99.90
2018-09-09T21:16:58.858Z,99.90
2018-09-09T21:19:27.071Z,99.90
2018-09-09T21:21:55.296Z,99.90
2018-09-09T21:24:23.565Z,99.90
2018-09-09T21:26:51.750Z,99.90
2018-09-09T21:29:19.947Z,99.90
2018-09-09T21:31:48.123Z,99.90
2018-09-09T21:34:16.265Z,99.90
2018-09-09T21:36:44.439Z,99.90
2018-09-09T21:39:12.607Z,99.90
2018-09-09T21:41:41.437Z,99.90
2018-09-09T21:44:09.659Z,99.90
2018-09-09T21:46:37.890Z,99.90
2018-09-09T21:49:06.296Z,99.90
2018-09-09T21:51:34.484Z,99.90
2018-09-09T21:54:02.683Z,99.90
2018-09-09T21:56:30.849Z,99.90
2018-09-09T21:58:59.033Z,99.90
2018-09-09T22:01:32.485Z,99.90
2018-09-09T22:04:00.642Z,99.90
2018-09-09T22:06:28.993Z,99.90
2018-09-09T22:08:58.361Z,99.90
2018-09-09T22:11:26.529Z,99.90
2018-09-09T22:13:55.581Z,99.90
2018-09-09T22:16:24.105Z,99.90
2018-09-09T22:18:52.269Z,99.90
2018-09-09T22:21:20.695Z,99.90
2018-09-09T22:23:48.897Z,99.90
2018-09-09T22:26:17.727Z,99.90
2018-09-09T22:28:46.495Z,99.90
2018-09-09T22:31:14.729Z,99.90
2018-09-09T22:33:42.891Z,99.90
2018-09-09T22:36:11.034Z,99.90
2018-09-09T22:38:39.213Z,99.90
2018-09-09T22:41:07.379Z,99.90
2018-09-09T22:43:35.559Z,99.90
2018-09-09T22:46:03.729Z,99.90
2018-09-09T22:48:31.865Z,99.90
2018-09-09T22:51:00.038Z,99.90
2018-09-09T22:53:28.182Z,99.90
2018-09-09T22:55:56.392Z,99.90
2018-09-09T22:58:24.562Z,99.90
2018-09-09T23:00:52.742Z,99.90
2018-09-09T23:03:20.918Z,99.90
2018-09-09T23:05:49.086Z,99.90
2018-09-09T23:08:17.294Z,99.90
2018-09-09T23:10:45.442Z,99.90
2018-09-09T23:13:13.654Z,99.90
2018-09-09T23:15:41.829Z,99.90
2018-09-09T23:18:09.986Z,99.90
2018-09-09T23:20:38.162Z,99.90
2018-09-09T23:23:06.293Z,99.90
2018-09-09T23:25:34.453Z,99.90
2018-09-09T23:28:02.609Z,99.90
2018-09-09T23:30:30.770Z,99.90
2018-09-09T23:32:58.949Z,99.90
2018-09-09T23:35:30.829Z,99.90
2018-09-09T23:37:58.985Z,99.90
2018-09-09T23:40:27.145Z,99.90
2018-09-09T23:42:55.335Z,99.90
2018-09-09T23:45:23.536Z,99.90
2018-09-09T23:47:51.686Z,99.90
2018-09-09T23:50:19.818Z,99.90
2018-09-09T23:52:48.011Z,99.90
2018-09-09T23:55:16.133Z,99.90
2018-09-09T23:57:44.322Z,99.90
